Time;durP1;ratioP1;P1;durP2;ratioP2;P2;SDS_P1;SDS_P2;PMS_P1;PMS_P2;Temp;Humidity;BMP_temperature;BMP_pressure;BME280_temperature;BME280_humidity;BME280_pressure;Samples;Min_cycle;Max_cycle;Signal;HPM_P1;HPM_P2
2023/11/28 00:02:26;;;;;;;1.77;1.20;;;14.20;53.70;;;;;;4187815;28;20101;-53
2023/11/28 00:05:08;;;;;;;2.58;1.00;;;14.20;54.40;;;;;;4188439;28;20082;-53
2023/11/28 00:07:48;;;;;;;;;;;14.10;54.40;;;;;;4188366;28;20056;-53
2023/11/28 00:10:29;;;;;;;1.10;1.00;;;14.10;55.30;;;;;;4187556;28;19969;-51
2023/11/28 00:13:10;;;;;;;0.88;0.88;;;14.10;55.70;;;;;;4190013;28;20412;-50
2023/11/28 00:15:52;;;;;;;1.48;1.13;;;14.10;54.60;;;;;;4205201;28;20104;-50
2023/11/28 00:18:33;;;;;;;1.65;1.10;;;14.20;53.70;;;;;;4205681;28;20469;-50
2023/11/28 00:21:15;;;;;;;0.95;0.90;;;14.30;53.60;;;;;;4205913;28;20083;-52
2023/11/28 00:23:55;;;;;;;0.65;0.65;;;14.40;53.70;;;;;;4199682;28;20419;-51
2023/11/28 00:26:36;;;;;;;1.13;0.90;;;14.40;53.60;;;;;;4187784;28;20166;-50
2023/11/28 00:29:17;;;;;;;0.88;0.80;;;14.40;53.20;;;;;;4188809;28;20055;-49
2023/11/28 00:32:00;;;;;;;1.10;0.70;;;14.50;53.30;;;;;;4188699;28;20060;-45
2023/11/28 00:34:42;;;;;;;1.05;0.88;;;14.50;51.70;;;;;;4187746;28;20506;-46
2023/11/28 00:37:23;;;;;;;1.65;1.20;;;14.50;52.90;;;;;;4188122;28;20063;-48
2023/11/28 00:40:07;;;;;;;1.40;0.88;;;14.50;53.00;;;;;;4181203;28;20158;-46
2023/11/28 00:42:49;;;;;;;2.38;1.00;;;14.50;53.10;;;;;;4171311;28;20550;-45
2023/11/28 00:45:29;;;;;;;1.30;1.20;;;14.50;53.80;;;;;;4156215;28;20068;-45
2023/11/28 00:48:11;;;;;;;0.77;0.63;;;14.50;52.70;;;;;;4157557;28;20052;-47
2023/11/28 00:50:53;;;;;;;0.90;0.90;;;14.50;53.10;;;;;;4157618;28;20060;-46
2023/11/28 00:53:34;;;;;;;;;;;14.50;53.70;;;;;;4172286;28;20064;-46
2023/11/28 00:56:21;;;;;;;1.85;1.33;;;14.50;53.20;;;;;;4165091;28;19950;-52
2023/11/28 00:59:02;;;;;;;1.65;1.25;;;14.50;53.80;;;;;;4172003;28;20056;-49
2023/11/28 01:01:43;;;;;;;1.23;1.13;;;14.50;55.20;;;;;;4160051;28;20051;-50
2023/11/28 01:04:27;;;;;;;1.60;1.35;;;14.50;54.00;;;;;;4171818;28;20202;-49
2023/11/28 01:07:08;;;;;;;1.65;1.55;;;14.50;54.80;;;;;;4172314;28;20487;-46
2023/11/28 01:09:49;;;;;;;2.03;1.63;;;14.50;54.70;;;;;;4171163;28;20053;-49
2023/11/28 01:12:31;;;;;;;1.27;1.20;;;14.40;55.20;;;;;;4197342;28;20198;-48
2023/11/28 01:15:12;;;;;;;1.30;1.20;;;14.50;54.90;;;;;;4171890;28;20542;-46
2023/11/28 01:17:53;;;;;;;2.93;1.73;;;14.50;55.20;;;;;;4174587;28;20282;-45
2023/11/28 01:20:35;;;;;;;1.60;1.50;;;14.50;54.70;;;;;;4188047;28;20449;-49
2023/11/28 01:23:17;;;;;;;1.88;1.77;;;14.50;55.40;;;;;;4187547;28;20059;-48
2023/11/28 01:25:57;;;;;;;3.70;1.38;;;14.60;54.80;;;;;;4188041;28;20093;-46
2023/11/28 01:28:38;;;;;;;2.00;1.30;;;14.70;56.00;;;;;;4178643;28;20056;-47
2023/11/28 01:31:20;;;;;;;;;;;14.80;56.40;;;;;;4200489;28;20055;-45
2023/11/28 01:34:01;;;;;;;1.30;1.17;;;14.80;54.70;;;;;;4204851;28;19927;-44
2023/11/28 01:36:44;;;;;;;1.30;1.05;;;14.80;54.90;;;;;;4204704;28;20518;-46
2023/11/28 01:39:25;;;;;;;2.22;1.13;;;14.80;55.10;;;;;;4203494;28;20506;-46
2023/11/28 01:42:07;;;;;;;1.45;1.35;;;14.70;56.00;;;;;;4204469;28;20071;-47
2023/11/28 01:44:48;;;;;;;1.92;1.27;;;14.70;55.70;;;;;;4195755;28;20181;-45
2023/11/28 01:47:29;;;;;;;2.03;1.52;;;14.70;55.10;;;;;;4186672;28;20051;-47
2023/11/28 01:50:10;;;;;;;1.75;1.20;;;14.70;56.40;;;;;;4179284;28;20438;-47
2023/11/28 01:52:54;;;;;;;2.13;1.50;;;14.70;54.60;;;;;;4187445;28;20067;-48
2023/11/28 01:55:35;;;;;;;1.35;1.25;;;14.70;54.20;;;;;;4186104;28;20055;-47
2023/11/28 01:58:16;;;;;;;1.30;1.20;;;14.70;54.30;;;;;;4182647;28;20047;-48
2023/11/28 02:00:59;;;;;;;3.08;1.55;;;14.70;54.40;;;;;;4188789;28;20051;-46
2023/11/28 02:03:42;;;;;;;1.20;1.10;;;14.70;55.20;;;;;;4174089;28;20047;-49
2023/11/28 02:06:23;;;;;;;3.72;1.90;;;14.80;54.00;;;;;;4186594;28;20043;-49
2023/11/28 02:09:05;;;;;;;1.67;1.52;;;14.80;54.00;;;;;;4170518;28;20059;-47
2023/11/28 02:11:46;;;;;;;2.95;1.50;;;14.80;53.50;;;;;;4186894;28;20569;-47
2023/11/28 02:14:28;;;;;;;2.28;1.58;;;14.80;53.20;;;;;;4187206;28;20047;-47
2023/11/28 02:17:09;;;;;;;2.13;1.10;;;14.80;53.00;;;;;;4179958;28;20051;-48
2023/11/28 02:19:51;;;;;;;1.67;1.58;;;14.80;53.10;;;;;;4201149;28;20047;-47
2023/11/28 02:22:34;;;;;;;1.73;1.50;;;14.70;53.50;;;;;;4204192;28;20083;-45
2023/11/28 02:25:17;;;;;;;1.92;1.23;;;14.80;54.50;;;;;;4169260;28;20048;-47
2023/11/28 02:27:59;;;;;;;1.55;1.23;;;14.80;54.80;;;;;;4169459;28;20182;-47
2023/11/28 02:30:40;;;;;;;1.75;1.05;;;14.80;55.60;;;;;;4187623;28;20062;-46
2023/11/28 02:33:21;;;;;;;1.90;1.00;;;14.80;56.10;;;;;;4186307;28;20051;-44
2023/11/28 02:36:02;;;;;;;2.07;1.00;;;14.80;55.50;;;;;;4187329;28;20051;-48
2023/11/28 02:38:43;;;;;;;3.50;0.98;;;14.80;55.30;;;;;;4172366;28;20615;-53
2023/11/28 02:41:24;;;;;;;2.20;1.00;;;14.70;55.60;;;;;;4186052;28;20189;-51
2023/11/28 02:44:06;;;;;;;0.82;0.82;;;14.70;56.80;;;;;;4181767;28;20059;-51
2023/11/28 02:46:47;;;;;;;1.35;1.25;;;14.70;56.90;;;;;;4171082;28;20098;-54
2023/11/28 02:49:28;;;;;;;1.80;1.00;;;14.70;56.30;;;;;;4196716;28;20060;-53
2023/11/28 02:52:09;;;;;;;1.65;1.08;;;14.70;57.00;;;;;;4173392;28;20064;-53
2023/11/28 02:54:50;;;;;;;1.10;1.00;;;14.70;57.80;;;;;;4169206;28;20395;-54
2023/11/28 02:57:31;;;;;;;0.90;0.90;;;14.70;57.90;;;;;;4187417;28;20392;-52
2023/11/28 03:00:15;;;;;;;2.42;1.00;;;14.80;58.30;;;;;;4170530;28;20048;-54
2023/11/28 03:02:56;;;;;;;1.05;0.93;;;14.80;57.00;;;;;;4170292;28;20097;-52
2023/11/28 03:05:37;;;;;;;0.90;0.85;;;14.80;57.30;;;;;;4179702;28;20498;-53
2023/11/28 03:08:17;;;;;;;3.60;1.25;;;14.80;56.90;;;;;;4192469;28;20058;-49
2023/11/28 03:10:58;;;;;;;1.40;1.30;;;14.80;56.80;;;;;;4203822;28;20442;-53
2023/11/28 03:13:39;;;;;;;1.10;1.00;;;14.70;56.80;;;;;;4203753;28;20109;-54
2023/11/28 03:16:22;;;;;;;1.33;0.80;;;14.70;57.20;;;;;;4202354;28;20410;-53
2023/11/28 03:19:03;;;;;;;2.28;1.30;;;14.70;56.60;;;;;;4203791;28;20547;-49
2023/11/28 03:21:44;;;;;;;3.20;1.23;;;14.70;56.40;;;;;;4185618;28;20056;-49
2023/11/28 03:24:25;;;;;;;1.75;1.20;;;14.70;57.00;;;;;;4186947;28;20051;-53
2023/11/28 03:27:07;;;;;;;;;;;14.80;56.60;;;;;;4196029;28;20398;-50
2023/11/28 03:29:48;;;;;;;2.28;1.33;;;14.90;56.10;;;;;;4203658;28;20273;-53
2023/11/28 03:32:30;;;;;;;1.42;1.33;;;14.90;56.20;;;;;;4203268;28;20059;-51
2023/11/28 03:35:12;;;;;;;1.83;1.42;;;14.90;56.20;;;;;;4203375;28;20054;-52
2023/11/28 03:37:53;;;;;;;1.80;1.45;;;15.00;56.30;;;;;;4190263;28;20075;-50
2023/11/28 03:40:34;;;;;;;1.30;1.17;;;15.00;55.40;;;;;;4173183;28;20191;-49
2023/11/28 03:43:15;;;;;;;1.40;1.30;;;15.00;55.00;;;;;;4173208;28;20064;-50
2023/11/28 03:45:56;;;;;;;2.42;1.30;;;15.00;56.50;;;;;;4175141;28;20068;-51
2023/11/28 03:48:39;;;;;;;2.55;1.45;;;15.00;56.80;;;;;;4189681;28;20063;-51
2023/11/28 03:51:20;;;;;;;2.85;1.60;;;15.00;57.40;;;;;;4188944;28;20079;-54
2023/11/28 03:54:01;;;;;;;2.45;1.50;;;15.00;57.60;;;;;;4185354;28;20059;-53
2023/11/28 03:56:43;;;;;;;7.90;1.50;;;15.00;56.20;;;;;;4157318;28;20052;-52
2023/11/28 03:59:24;;;;;;;1.80;1.40;;;15.10;57.20;;;;;;4164188;28;20323;-50
2023/11/28 04:02:05;;;;;;;1.42;1.23;;;15.10;56.60;;;;;;4168767;28;20060;-51
2023/11/28 04:04:47;;;;;;;2.58;1.60;;;15.20;56.80;;;;;;4168091;28;20699;-54
2023/11/28 04:07:29;;;;;;;1.98;1.50;;;15.20;57.10;;;;;;4171972;28;20498;-45
2023/11/28 04:10:10;;;;;;;1.25;1.13;;;15.30;57.50;;;;;;4188141;28;20105;-46
2023/11/28 04:12:51;;;;;;;1.85;1.20;;;15.30;56.90;;;;;;4187619;28;20109;-49
2023/11/28 04:15:33;;;;;;;1.67;1.58;;;15.20;57.10;;;;;;4187973;28;20079;-46
2023/11/28 04:18:15;;;;;;;1.65;1.55;;;15.30;56.20;;;;;;4189711;28;20186;-46
2023/11/28 04:20:57;;;;;;;2.03;1.70;;;15.30;55.80;;;;;;4189460;28;20101;-46
2023/11/28 04:23:39;;;;;;;1.67;1.40;;;15.30;56.20;;;;;;4196058;28;20075;-50
2023/11/28 04:26:21;;;;;;;1.38;1.25;;;15.20;57.50;;;;;;4200495;28;20056;-46
2023/11/28 04:29:02;;;;;;;1.52;1.42;;;15.20;57.80;;;;;;4187613;28;20534;-48
2023/11/28 04:31:44;;;;;;;2.60;1.30;;;15.20;56.70;;;;;;4191750;28;20055;-46
2023/11/28 04:34:25;;;;;;;1.23;1.13;;;15.20;57.90;;;;;;4188273;28;20068;-46
2023/11/28 04:37:07;;;;;;;1.38;1.27;;;15.10;58.70;;;;;;4193348;28;20452;-45
2023/11/28 04:39:53;;;;;;;3.42;1.40;;;15.10;59.10;;;;;;4204540;28;20059;-47
2023/11/28 04:42:34;;;;;;;3.30;1.30;;;15.20;59.20;;;;;;4185136;28;20048;-47
2023/11/28 04:45:15;;;;;;;2.45;1.20;;;15.30;59.80;;;;;;4189004;28;20051;-49
2023/11/28 04:47:56;;;;;;;2.38;1.60;;;15.30;59.60;;;;;;4188925;28;20047;-46
2023/11/28 04:50:37;;;;;;;1.27;1.27;;;15.30;59.30;;;;;;4186473;28;20047;-47
2023/11/28 04:53:19;;;;;;;1.77;1.10;;;15.40;59.10;;;;;;4184505;28;20055;-49
2023/11/28 04:56:01;;;;;;;2.42;1.38;;;15.30;58.10;;;;;;4188232;28;20059;-46
2023/11/28 04:58:43;;;;;;;1.40;1.27;;;15.40;59.70;;;;;;4184786;28;20095;-48
2023/11/28 05:01:24;;;;;;;1.73;1.63;;;15.30;59.50;;;;;;4194897;28;20070;-47
2023/11/28 05:04:05;;;;;;;2.30;1.55;;;15.30;58.00;;;;;;4188563;28;20067;-46
2023/11/28 05:06:47;;;;;;;2.08;1.50;;;15.30;59.80;;;;;;4186998;28;20186;-46
2023/11/28 05:09:31;;;;;;;1.83;1.42;;;15.30;60.60;;;;;;4177464;28;20048;-48
2023/11/28 05:12:12;;;;;;;2.53;1.45;;;15.30;60.30;;;;;;4199384;28;20185;-45
2023/11/28 05:14:53;;;;;;;2.90;1.30;;;15.30;60.70;;;;;;4170229;28;20051;-47
2023/11/28 05:17:35;;;;;;;1.30;1.20;;;15.40;59.80;;;;;;4162335;28;20095;-51
2023/11/28 05:20:16;;;;;;;;;;;15.40;61.90;;;;;;4192564;28;20051;-49
2023/11/28 05:22:56;;;;;;;1.77;1.50;;;15.40;61.40;;;;;;4204409;28;19926;-45
2023/11/28 05:25:39;;;;;;;1.48;1.38;;;15.40;61.60;;;;;;4203702;28;20528;-49
2023/11/28 05:28:20;;;;;;;1.50;1.30;;;15.40;61.60;;;;;;4185786;28;20055;-45
2023/11/28 05:31:02;;;;;;;2.58;1.63;;;15.40;61.30;;;;;;4181631;28;20198;-46
2023/11/28 05:33:44;;;;;;;1.52;1.35;;;15.40;61.90;;;;;;4170499;28;20048;-50
2023/11/28 05:36:26;;;;;;;2.25;1.73;;;15.40;61.90;;;;;;4170746;28;20075;-48
2023/11/28 05:39:08;;;;;;;1.45;1.10;;;15.40;60.80;;;;;;4172546;28;20408;-48
2023/11/28 05:41:50;;;;;;;1.55;1.42;;;15.40;62.00;;;;;;4182484;28;20055;-46
2023/11/28 05:44:31;;;;;;;2.30;1.55;;;15.40;61.90;;;;;;4182987;28;20450;-46
2023/11/28 05:47:12;;;;;;;1.40;1.20;;;15.30;60.70;;;;;;4184165;28;20411;-46
2023/11/28 05:49:54;;;;;;;3.95;1.27;;;15.30;62.00;;;;;;4185194;28;20051;-46
2023/11/28 05:52:35;;;;;;;3.07;1.50;;;15.30;62.10;;;;;;4186114;28;20048;-49
2023/11/28 05:55:18;;;;;;;1.25;1.15;;;15.20;61.10;;;;;;4186117;28;20060;-54
2023/11/28 05:58:00;;;;;;;1.77;1.30;;;15.20;62.40;;;;;;4186863;28;20186;-53
2023/11/28 06:00:41;;;;;;;1.40;1.25;;;15.30;62.80;;;;;;4204726;28;20054;-51
2023/11/28 06:03:22;;;;;;;1.90;1.00;;;15.30;62.50;;;;;;4203070;28;20190;-52
2023/11/28 06:06:03;;;;;;;1.10;1.00;;;15.30;62.70;;;;;;4204646;28;20144;-52
2023/11/28 06:08:45;;;;;;;1.70;1.60;;;15.40;62.60;;;;;;4182300;28;20831;-53
2023/11/28 06:11:27;;;;;;;2.17;1.38;;;15.40;63.00;;;;;;4186256;28;20400;-53
2023/11/28 06:14:09;;;;;;;2.25;1.13;;;15.40;62.30;;;;;;4186549;28;20426;-52
2023/11/28 06:16:50;;;;;;;1.90;1.70;;;15.40;61.70;;;;;;4175256;28;20064;-49
2023/11/28 06:19:32;;;;;;;1.60;1.50;;;15.30;62.40;;;;;;4161537;28;20056;-53
2023/11/28 06:22:13;;;;;;;2.95;1.50;;;15.30;62.40;;;;;;4164181;28;20506;-51
2023/11/28 06:24:54;;;;;;;2.03;1.42;;;15.40;62.00;;;;;;4186151;28;20043;-52
2023/11/28 06:27:35;;;;;;;1.73;1.63;;;15.40;60.00;;;;;;4185845;28;20048;-50
2023/11/28 06:30:18;;;;;;;2.63;1.63;;;15.50;60.80;;;;;;4171224;28;20067;-49
2023/11/28 06:32:58;;;;;;;1.40;1.30;;;15.50;60.90;;;;;;4187730;28;20190;-53
2023/11/28 06:35:39;;;;;;;2.30;1.50;;;15.50;58.40;;;;;;4182890;28;20059;-51
2023/11/28 06:38:22;;;;;;;1.63;1.50;;;15.50;59.40;;;;;;4184673;28;20052;-51
2023/11/28 06:41:04;;;;;;;1.35;1.20;;;15.50;61.50;;;;;;4187230;28;20546;-48
2023/11/28 06:43:46;;;;;;;3.03;1.42;;;15.60;61.80;;;;;;4187386;28;20074;-52
2023/11/28 06:46:29;;;;;;;1.48;1.35;;;15.60;61.80;;;;;;4188790;28;20402;-48
2023/11/28 06:49:10;;;;;;;1.50;1.23;;;15.60;61.90;;;;;;4186939;28;20075;-45
2023/11/28 06:51:51;;;;;;;1.35;1.15;;;15.60;61.90;;;;;;4181468;28;20518;-47
2023/11/28 06:54:33;;;;;;;1.75;1.65;;;15.70;62.10;;;;;;4184767;28;20182;-46
2023/11/28 06:57:14;;;;;;;1.50;1.50;;;15.70;60.90;;;;;;4173422;28;20052;-46
2023/11/28 06:59:55;;;;;;;2.78;1.23;;;15.70;61.40;;;;;;4179809;28;20055;-45
2023/11/28 07:02:37;;;;;;;2.00;1.20;;;15.70;61.60;;;;;;4172409;28;20130;-45
2023/11/28 07:05:19;;;;;;;2.55;1.25;;;15.70;61.70;;;;;;4174707;28;20047;-44
2023/11/28 07:08:01;;;;;;;2.58;1.60;;;15.70;61.60;;;;;;4183130;28;20080;-45
2023/11/28 07:10:41;;;;;;;2.00;1.20;;;15.60;60.40;;;;;;4184955;28;20119;-44
2023/11/28 07:13:22;;;;;;;1.60;1.48;;;15.60;60.90;;;;;;4169882;28;20052;-45
2023/11/28 07:16:03;;;;;;;1.60;1.10;;;15.50;62.00;;;;;;4174183;28;20052;-43
2023/11/28 07:18:45;;;;;;;1.67;1.50;;;15.50;62.20;;;;;;4168830;28;20491;-45
2023/11/28 07:21:26;;;;;;;1.58;1.40;;;15.60;61.40;;;;;;4187227;28;20052;-46
2023/11/28 07:24:08;;;;;;;2.08;1.55;;;15.60;61.80;;;;;;4183821;28;20113;-45
2023/11/28 07:26:49;;;;;;;1.13;1.02;;;15.60;61.40;;;;;;4183261;28;20056;-45
2023/11/28 07:29:30;;;;;;;1.52;1.50;;;15.60;61.30;;;;;;4189264;28;20186;-48
2023/11/28 07:32:12;;;;;;;1.80;1.55;;;15.60;60.60;;;;;;4195588;28;20082;-46
2023/11/28 07:34:54;;;;;;;3.88;1.60;;;15.70;56.30;;;;;;4197030;28;20051;-50
2023/11/28 07:37:35;;;;;;;1.73;1.20;;;15.60;55.90;;;;;;4189991;28;20055;-47
2023/11/28 07:40:17;;;;;;;2.13;1.63;;;15.60;56.10;;;;;;4189688;28;20138;-50
2023/11/28 07:42:58;;;;;;;2.40;2.15;;;15.60;54.80;;;;;;4173326;28;20411;-47
2023/11/28 07:45:40;;;;;;;2.15;1.80;;;15.60;55.20;;;;;;4167524;28;20208;-46
2023/11/28 07:48:21;;;;;;;2.00;1.90;;;15.50;54.90;;;;;;4165982;28;20048;-46
2023/11/28 07:51:04;;;;;;;;;;;15.40;55.70;;;;;;4179753;28;20056;-46
2023/11/28 07:53:45;;;;;;;3.67;2.13;;;15.40;55.30;;;;;;4190654;28;19930;-49
2023/11/28 07:56:26;;;;;;;2.72;2.00;;;15.40;57.70;;;;;;4187854;28;20055;-47
2023/11/28 07:59:07;;;;;;;4.10;2.45;;;15.40;55.00;;;;;;4188467;28;20055;-52
2023/11/28 08:01:49;;;;;;;2.13;1.98;;;15.40;57.30;;;;;;4182220;28;20047;-53
2023/11/28 08:04:30;;;;;;;3.30;2.15;;;15.40;56.90;;;;;;4168186;28;20126;-53
2023/11/28 08:07:12;;;;;;;2.38;2.10;;;15.40;59.10;;;;;;4181841;28;20495;-54
2023/11/28 08:09:53;;;;;;;2.30;2.00;;;15.40;58.30;;;;;;4188289;28;20094;-49
2023/11/28 08:12:34;;;;;;;2.50;2.10;;;15.30;59.60;;;;;;4186274;28;20064;-51
2023/11/28 08:15:15;;;;;;;2.35;1.83;;;15.30;61.00;;;;;;4184918;28;20056;-51
2023/11/28 08:17:56;;;;;;;1.73;1.60;;;15.20;61.50;;;;;;4181756;28;20063;-52
2023/11/28 08:20:37;;;;;;;2.15;1.67;;;15.30;63.00;;;;;;4155441;28;20052;-52
2023/11/28 08:23:19;;;;;;;4.03;1.60;;;15.30;62.80;;;;;;4172335;28;20048;-51
2023/11/28 08:26:00;;;;;;;1.60;1.50;;;15.40;62.30;;;;;;4183888;28;20090;-49
2023/11/28 08:28:41;;;;;;;2.42;1.50;;;15.40;59.30;;;;;;4182655;28;20082;-50
2023/11/28 08:31:23;;;;;;;1.20;1.10;;;15.40;62.00;;;;;;4159778;28;20413;-50
2023/11/28 08:34:04;;;;;;;1.70;1.15;;;15.40;59.40;;;;;;4172123;28;20574;-49
2023/11/28 08:36:46;;;;;;;1.65;1.55;;;15.40;59.70;;;;;;4171704;28;20427;-52
2023/11/28 08:39:28;;;;;;;1.40;1.30;;;15.40;60.70;;;;;;4172930;28;20056;-50
2023/11/28 08:42:10;;;;;;;2.17;1.30;;;15.30;60.80;;;;;;4176207;28;20376;-51
2023/11/28 08:44:52;;;;;;;3.35;1.40;;;15.30;59.60;;;;;;4192497;28;20093;-44
2023/11/28 08:47:33;;;;;;;2.75;1.95;;;15.30;60.70;;;;;;4187090;28;20490;-50
2023/11/28 08:50:14;;;;;;;2.15;1.65;;;15.20;61.10;;;;;;4180176;28;20101;-49
2023/11/28 08:52:55;;;;;;;1.30;1.00;;;15.20;62.70;;;;;;4187374;28;20040;-46
2023/11/28 08:55:37;;;;;;;1.45;1.27;;;15.10;59.30;;;;;;4176754;28;20102;-47
2023/11/28 08:58:18;;;;;;;1.33;1.10;;;15.20;61.90;;;;;;4183965;28;20685;-46
2023/11/28 09:01:00;;;;;;;2.63;1.13;;;15.20;61.80;;;;;;4185832;28;20112;-46
2023/11/28 09:03:41;;;;;;;1.15;1.05;;;15.20;60.30;;;;;;4172474;28;20128;-47
2023/11/28 09:06:22;;;;;;;1.55;1.20;;;15.20;61.80;;;;;;4182132;28;20109;-45
2023/11/28 09:09:03;;;;;;;1.52;1.42;;;15.20;62.70;;;;;;4188233;28;20491;-46
2023/11/28 09:11:46;;;;;;;2.95;1.40;;;15.20;60.30;;;;;;4188381;28;20060;-44
2023/11/28 09:14:26;;;;;;;4.32;1.50;;;15.20;59.90;;;;;;4180255;28;20496;-45
2023/11/28 09:17:08;;;;;;;1.85;1.30;;;15.20;61.80;;;;;;4172383;28;20182;-44
2023/11/28 09:19:48;;;;;;;1.42;1.33;;;15.10;62.80;;;;;;4194831;28;20051;-45
2023/11/28 09:22:29;;;;;;;10.73;1.98;;;15.10;63.70;;;;;;4204662;28;20096;-45
2023/11/28 09:25:12;;;;;;;1.13;1.08;;;15.20;64.50;;;;;;4205019;28;20113;-48
2023/11/28 09:27:54;;;;;;;2.28;1.10;;;15.20;63.50;;;;;;4171453;28;20399;-52
2023/11/28 09:30:35;;;;;;;2.10;1.45;;;15.30;64.00;;;;;;4179662;28;20048;-50
2023/11/28 09:33:16;;;;;;;1.35;1.25;;;15.30;64.40;;;;;;4188076;28;20560;-51
2023/11/28 09:35:57;;;;;;;1.33;1.23;;;15.30;64.70;;;;;;4173775;28;20055;-51
2023/11/28 09:38:37;;;;;;;2.03;1.33;;;15.30;64.20;;;;;;4188112;28;20062;-49
2023/11/28 09:41:25;;;;;;;1.08;1.08;;;15.20;63.90;;;;;;4187092;28;20052;-49
2023/11/28 09:44:17;;;;;;;1.40;1.30;;;15.20;63.20;;;;;;4184876;28;20051;-48
2023/11/28 09:47:07;;;;;;;1.15;1.00;;;15.10;63.80;;;;;;4184085;28;20076;-53
2023/11/28 09:49:49;;;;;;;1.15;1.10;;;15.10;63.60;;;;;;4187228;28;20159;-50
2023/11/28 09:52:34;;;;;;;1.20;1.10;;;15.00;64.50;;;;;;4174614;28;20121;-50
2023/11/28 09:55:16;;;;;;;1.35;1.30;;;15.00;65.30;;;;;;4160298;28;20156;-49
2023/11/28 09:57:58;;;;;;;1.00;0.98;;;15.00;65.10;;;;;;4157807;28;20063;-50
2023/11/28 10:00:41;;;;;;;1.42;1.35;;;15.00;64.50;;;;;;4165869;28;20060;-53
2023/11/28 10:03:22;;;;;;;2.55;1.17;;;14.90;62.50;;;;;;4156462;28;20061;-49
2023/11/28 10:06:03;;;;;;;2.05;1.13;;;14.90;61.10;;;;;;4178514;28;20095;-48
2023/11/28 10:08:48;;;;;;;1.27;1.17;;;14.90;63.00;;;;;;4174081;28;20052;-48
2023/11/28 10:11:32;;;;;;;1.30;1.20;;;15.00;65.00;;;;;;4156066;28;20052;-49
2023/11/28 10:14:13;;;;;;;3.28;1.20;;;15.10;64.10;;;;;;4170934;28;20179;-52
2023/11/28 10:16:55;;;;;;;1.27;1.15;;;15.10;59.80;;;;;;4196730;28;20047;-50
2023/11/28 10:19:36;;;;;;;1.38;1.27;;;15.30;63.30;;;;;;4204035;28;20121;-52
2023/11/28 10:22:18;;;;;;;1.10;1.00;;;15.40;60.70;;;;;;4181367;28;20055;-49
2023/11/28 10:24:58;;;;;;;1.52;1.42;;;15.40;62.60;;;;;;4174966;28;20376;-50
2023/11/28 10:27:41;;;;;;;2.17;1.15;;;15.40;62.50;;;;;;4165640;28;20248;-50
2023/11/28 10:30:22;;;;;;;;;;;15.40;62.10;;;;;;4182898;28;20052;-49
2023/11/28 10:33:07;;;;;;;2.80;1.42;;;15.40;62.80;;;;;;4187282;28;19936;-51
2023/11/28 10:35:49;;;;;;;0.95;0.95;;;15.40;63.90;;;;;;4192959;28;20192;-48
2023/11/28 10:38:29;;;;;;;1.48;1.40;;;15.50;64.00;;;;;;4194223;28;20052;-46
2023/11/28 10:41:10;;;;;;;1.90;1.63;;;15.60;65.00;;;;;;4184458;28;20125;-48
2023/11/28 10:43:52;;;;;;;1.40;1.30;;;15.70;67.60;;;;;;4171790;28;20523;-49
2023/11/28 10:46:35;;;;;;;4.22;2.13;;;15.80;66.30;;;;;;4192460;28;20105;-54
2023/11/28 10:49:18;;;;;;;1.90;1.13;;;15.90;65.70;;;;;;4200007;28;20048;-50
2023/11/28 10:52:00;;;;;;;1.23;1.13;;;16.00;65.60;;;;;;4189747;28;20055;-52
2023/11/28 10:54:46;;;;;;;1.58;1.48;;;16.00;65.50;;;;;;4194317;28;20059;-51
2023/11/28 10:57:28;;;;;;;1.45;1.35;;;16.00;65.30;;;;;;4190462;28;20072;-55
2023/11/28 11:00:12;;;;;;;2.85;1.58;;;16.10;65.20;;;;;;4168787;28;20569;-54
2023/11/28 11:02:53;;;;;;;1.40;1.10;;;16.00;64.90;;;;;;4182840;28;20170;-55
2023/11/28 11:05:36;;;;;;;1.30;1.30;;;16.10;64.90;;;;;;4190441;28;20498;-51
2023/11/28 11:08:17;;;;;;;1.45;1.35;;;16.10;64.80;;;;;;4188597;28;20055;-53
2023/11/28 11:10:59;;;;;;;2.25;1.08;;;16.10;64.30;;;;;;4179077;28;20198;-52
2023/11/28 11:13:52;;;;;;;2.40;1.05;;;16.20;63.20;;;;;;4188862;28;20178;-55
2023/11/28 11:16:39;;;;;;;1.20;1.20;;;16.10;64.60;;;;;;4172747;28;20060;-53
2023/11/28 11:19:20;;;;;;;1.20;1.20;;;16.00;64.60;;;;;;4172611;28;20052;-53
2023/11/28 11:22:06;;;;;;;1.58;1.20;;;16.00;65.00;;;;;;4188008;28;20126;-51
2023/11/28 11:24:48;;;;;;;1.38;1.20;;;15.90;64.20;;;;;;4190991;28;20407;-51
2023/11/28 11:27:29;;;;;;;3.08;1.52;;;15.80;63.00;;;;;;4171942;28;20498;-50
2023/11/28 11:30:11;;;;;;;1.13;1.13;;;15.70;64.00;;;;;;4184050;28;20052;-53
2023/11/28 11:32:55;;;;;;;1.45;1.35;;;15.70;62.80;;;;;;4189480;28;20052;-51
2023/11/28 11:36:15;;;;;;;3.97;1.55;;;15.70;64.30;;;;;;4184677;28;20847;-54
2023/11/28 11:38:57;;;;;;;1.40;1.40;;;15.60;64.70;;;;;;4187204;28;20074;-50
2023/11/28 11:41:40;;;;;;;1.65;1.52;;;15.60;65.30;;;;;;4174940;28;20505;-51
2023/11/28 11:44:21;;;;;;;2.65;1.60;;;15.60;65.90;;;;;;4187285;28;20048;-52
2023/11/28 11:47:15;;;;;;;1.73;1.52;;;15.60;65.60;;;;;;4172885;28;20087;-53
2023/11/28 11:49:57;;;;;;;2.45;1.48;;;15.50;65.60;;;;;;4186388;28;20406;-52
2023/11/28 11:52:38;;;;;;;1.88;1.52;;;15.50;66.50;;;;;;4174432;28;20071;-50
2023/11/28 11:55:20;;;;;;;1.37;1.23;;;15.50;66.70;;;;;;4197356;28;20058;-50
2023/11/28 11:58:01;;;;;;;1.95;1.30;;;15.40;66.80;;;;;;4186571;28;20792;-51
2023/11/28 12:00:45;;;;;;;1.58;1.50;;;15.50;66.90;;;;;;4179543;28;20130;-50
2023/11/28 12:03:26;;;;;;;1.42;1.20;;;15.50;67.10;;;;;;4172514;28;20076;-53
2023/11/28 12:06:08;;;;;;;3.10;1.63;;;15.50;67.70;;;;;;4167217;28;20056;-52
2023/11/28 12:08:50;;;;;;;4.35;1.92;;;15.50;67.70;;;;;;4172556;28;20507;-49
2023/11/28 12:11:32;;;;;;;2.28;1.52;;;15.60;67.60;;;;;;4190975;28;20063;-53
2023/11/28 12:14:13;;;;;;;2.33;1.40;;;15.60;67.50;;;;;;4201226;28;20100;-54
2023/11/28 12:16:54;;;;;;;1.38;1.23;;;15.60;67.50;;;;;;4199502;28;20055;-54
2023/11/28 12:19:35;;;;;;;1.42;1.30;;;15.60;67.70;;;;;;4199552;28;20051;-53
2023/11/28 12:22:16;;;;;;;2.08;1.92;;;15.50;68.70;;;;;;4170674;28;20101;-55
2023/11/28 12:24:57;;;;;;;1.48;1.38;;;15.40;69.30;;;;;;4181122;28;20070;-51
2023/11/28 12:27:40;;;;;;;3.55;1.92;;;15.40;69.90;;;;;;4187076;28;20056;-53
2023/11/28 12:30:21;;;;;;;1.40;1.30;;;15.30;70.30;;;;;;4175344;28;20075;-50
2023/11/28 12:33:01;;;;;;;3.85;1.70;;;15.20;70.80;;;;;;4188171;28;20055;-48
2023/11/28 12:35:46;;;;;;;2.60;1.70;;;15.20;71.00;;;;;;4186618;28;20059;-47
2023/11/28 12:38:28;;;;;;;2.60;1.83;;;15.20;71.00;;;;;;4176444;28;20056;-49
2023/11/28 12:41:09;;;;;;;1.80;1.33;;;15.20;71.40;;;;;;4185989;28;20109;-47
2023/11/28 12:43:59;;;;;;;2.20;1.30;;;15.20;71.90;;;;;;4171726;28;20060;-51
2023/11/28 12:46:41;;;;;;;2.38;1.80;;;15.20;72.00;;;;;;4159507;28;20201;-53
2023/11/28 12:49:24;;;;;;;2.55;1.40;;;15.20;72.60;;;;;;4167945;28;20416;-46
2023/11/28 12:52:05;;;;;;;1.58;1.15;;;15.20;72.30;;;;;;4178503;28;20046;-49
2023/11/28 12:54:46;;;;;;;2.25;1.80;;;15.30;71.20;;;;;;4188315;28;20072;-47
2023/11/28 12:57:27;;;;;;;1.85;1.20;;;15.20;71.70;;;;;;4170485;28;20056;-43
2023/11/28 13:00:11;;;;;;;1.70;1.60;;;15.30;72.50;;;;;;4177646;28;20560;-46
2023/11/28 13:02:52;;;;;;;1.98;1.48;;;15.30;73.40;;;;;;4184553;28;20536;-47
2023/11/28 13:05:33;;;;;;;2.53;1.08;;;15.30;72.60;;;;;;4188055;28;20063;-46
2023/11/28 13:08:16;;;;;;;3.53;1.60;;;15.40;72.50;;;;;;4204766;28;20132;-48
2023/11/28 13:10:57;;;;;;;2.30;1.33;;;15.40;72.70;;;;;;4190642;28;20051;-48
2023/11/28 13:13:38;;;;;;;2.03;1.30;;;15.40;72.60;;;;;;4167955;28;20060;-48
2023/11/28 13:16:21;;;;;;;3.30;1.48;;;15.40;72.10;;;;;;4171285;28;20137;-46
2023/11/28 13:19:02;;;;;;;2.00;1.30;;;15.40;71.70;;;;;;4167608;28;20618;-48
2023/11/28 13:21:43;;;;;;;1.63;1.30;;;15.40;71.80;;;;;;4171954;28;20052;-46
2023/11/28 13:24:24;;;;;;;2.45;1.58;;;15.40;72.00;;;;;;4172924;28;20391;-47
2023/11/28 13:27:06;;;;;;;2.63;2.05;;;15.40;72.00;;;;;;4182610;28;20101;-45
2023/11/28 13:29:47;;;;;;;1.60;1.50;;;15.30;72.10;;;;;;4196566;28;20059;-48
2023/11/28 13:32:29;;;;;;;1.83;1.50;;;15.30;72.10;;;;;;4201552;28;20454;-47
2023/11/28 13:35:12;;;;;;;1.73;1.50;;;15.20;72.20;;;;;;4186158;28;20063;-45
2023/11/28 13:37:53;;;;;;;1.60;1.20;;;15.20;72.30;;;;;;4171590;28;20140;-47
2023/11/28 13:40:34;;;;;;;2.60;1.70;;;15.10;72.60;;;;;;4162005;28;20180;-46
2023/11/28 13:43:15;;;;;;;2.53;1.55;;;15.10;72.80;;;;;;4193275;28;20094;-45
2023/11/28 13:45:56;;;;;;;3.97;1.42;;;15.00;72.70;;;;;;4170777;28;20064;-49
2023/11/28 13:48:39;;;;;;;1.38;1.35;;;15.00;73.10;;;;;;4170248;28;20456;-51
2023/11/28 13:51:20;;;;;;;1.95;1.35;;;14.90;73.10;;;;;;4171250;28;20424;-53
2023/11/28 13:54:02;;;;;;;;;;;14.80;73.40;;;;;;4169810;28;20052;-51
2023/11/28 13:56:43;;;;;;;1.50;1.42;;;14.80;73.90;;;;;;4190835;28;21023;-54
2023/11/28 13:59:29;;;;;;;1.85;1.50;;;14.70;74.80;;;;;;4199976;28;20060;-50
2023/11/28 14:02:09;;;;;;;1.50;1.40;;;14.70;75.00;;;;;;4179612;28;20055;-53
2023/11/28 14:04:52;;;;;;;1.85;1.65;;;14.60;75.00;;;;;;4187905;28;20086;-53